Time;durP1;ratioP1;P1;durP2;ratioP2;P2;SDS_P1;SDS_P2;PMS_P1;PMS_P2;Temp;Humidity;BMP_temperature;BMP_pressure;BME280_temperature;BME280_humidity;BME280_pressure;Samples;Min_cycle;Max_cycle;Signal;HPM_P1;HPM_P2
2023/10/16 00:00:29;;;;;;;14.48;12.98;;;20.90;67.90;;;;;;349633;28;1502;-56
2023/10/16 00:00:43;;;;;;;14.82;13.23;;;20.90;67.90;;;;;;349476;28;1475;-56
2023/10/16 00:00:54;;;;;;;16.30;13.52;;;20.90;67.80;;;;;;349552;28;1154;-57
2023/10/16 00:01:11;;;;;;;15.68;13.48;;;20.90;67.70;;;;;;349578;28;1006;-57
2023/10/16 00:01:26;;;;;;;14.98;13.48;;;20.90;67.40;;;;;;349611;28;1039;-56
2023/10/16 00:01:38;;;;;;;15.63;14.02;;;20.90;67.30;;;;;;349632;28;1059;-58
2023/10/16 00:01:49;;;;;;;15.95;14.25;;;20.90;67.40;;;;;;349503;28;1909;-57
2023/10/16 00:02:03;;;;;;;15.70;13.68;;;20.90;67.40;;;;;;349613;28;1194;-58
2023/10/16 00:02:14;;;;;;;15.32;13.73;;;20.90;67.40;;;;;;349581;28;1150;-57
2023/10/16 00:02:25;;;;;;;15.35;13.75;;;20.90;67.40;;;;;;349633;28;991;-57
2023/10/16 00:02:36;;;;;;;15.67;14.07;;;20.90;67.40;;;;;;349547;28;1177;-57
2023/10/16 00:02:46;;;;;;;15.70;14.05;;;20.90;67.60;;;;;;349716;28;924;-58
2023/10/16 00:02:59;;;;;;;16.15;14.40;;;20.90;67.70;;;;;;349630;28;1043;-58
2023/10/16 00:03:12;;;;;;;17.58;15.00;;;20.90;67.80;;;;;;349618;28;871;-58
2023/10/16 00:03:23;;;;;;;18.48;15.35;;;20.90;67.90;;;;;;349498;28;987;-58
2023/10/16 00:03:33;;;;;;;17.13;15.13;;;21.00;68.10;;;;;;349685;28;837;-58
2023/10/16 00:03:44;;;;;;;17.15;15.32;;;20.90;68.20;;;;;;349633;28;888;-57
2023/10/16 00:03:56;;;;;;;17.00;15.20;;;20.90;68.30;;;;;;349602;28;1015;-56
2023/10/16 00:04:06;;;;;;;17.52;15.25;;;20.90;68.30;;;;;;349543;28;1000;-56
2023/10/16 00:04:18;;;;;;;17.05;14.73;;;20.90;68.40;;;;;;349596;28;852;-58
2023/10/16 00:04:29;;;;;;;16.38;14.50;;;20.90;68.40;;;;;;349597;28;1034;-57
2023/10/16 00:04:44;;;;;;;16.08;14.32;;;20.90;68.40;;;;;;349638;28;1035;-57
2023/10/16 00:04:54;;;;;;;16.17;14.35;;;20.90;68.40;;;;;;349526;28;976;-58
2023/10/16 00:05:08;;;;;;;16.50;14.50;;;20.90;68.50;;;;;;349618;28;1042;-56
2023/10/16 00:05:19;;;;;;;16.27;14.10;;;20.90;68.50;;;;;;349535;28;992;-58
2023/10/16 00:05:38;;;;;;;15.65;13.68;;;21.00;68.70;;;;;;349588;28;1079;-57
2023/10/16 00:05:49;;;;;;;16.40;13.50;;;20.90;68.60;;;;;;349626;28;957;-56
2023/10/16 00:06:05;;;;;;;17.20;13.50;;;20.90;68.60;;;;;;349622;28;984;-57
2023/10/16 00:06:16;;;;;;;16.67;14.02;;;21.00;68.80;;;;;;349593;28;1977;-57
2023/10/16 00:06:28;;;;;;;15.82;14.10;;;20.90;68.90;;;;;;349629;28;901;-57
2023/10/16 00:06:39;;;;;;;16.08;13.98;;;20.90;68.80;;;;;;349503;28;1872;-56
2023/10/16 00:06:50;;;;;;;16.87;14.37;;;20.90;68.80;;;;;;349648;28;1091;-58
2023/10/16 00:07:01;;;;;;;16.85;14.40;;;20.90;68.80;;;;;;349552;28;1066;-57
2023/10/16 00:07:27;;;;;;;16.15;14.35;;;20.90;68.70;;;;;;349626;28;1027;-58
2023/10/16 00:07:38;;;;;;;16.42;14.50;;;20.90;68.70;;;;;;349564;28;1213;-57
2023/10/16 00:07:50;;;;;;;17.23;14.52;;;20.90;68.50;;;;;;349485;28;1235;-57
2023/10/16 00:08:05;;;;;;;16.77;14.15;;;20.90;68.40;;;;;;349662;28;1066;-56
2023/10/16 00:08:17;;;;;;;16.25;14.18;;;20.90;68.30;;;;;;349513;28;1146;-56
2023/10/16 00:08:27;;;;;;;16.55;14.48;;;21.00;68.30;;;;;;349660;28;1070;-57
2023/10/16 00:08:48;;;;;;;17.30;14.85;;;20.90;68.40;;;;;;349543;28;1117;-59
2023/10/16 00:09:14;;;;;;;18.90;14.93;;;20.90;68.50;;;;;;349588;28;1126;-57
2023/10/16 00:09:28;;;;;;;16.25;14.55;;;20.90;68.70;;;;;;349532;28;1220;-56
2023/10/16 00:09:43;;;;;;;16.95;15.15;;;20.90;68.70;;;;;;349569;28;901;-57
2023/10/16 00:09:54;;;;;;;17.00;15.10;;;20.90;68.60;;;;;;349536;28;1215;-57
2023/10/16 00:10:11;;;;;;;17.02;14.75;;;20.90;68.40;;;;;;349640;28;1862;-56
2023/10/16 00:10:22;;;;;;;16.70;14.65;;;20.90;68.50;;;;;;349612;28;1015;-57
2023/10/16 00:10:35;;;;;;;16.05;14.35;;;20.90;68.50;;;;;;349514;28;1130;-57
2023/10/16 00:11:01;;;;;;;16.33;14.63;;;20.90;68.40;;;;;;349660;28;982;-56
2023/10/16 00:11:12;;;;;;;16.38;13.85;;;20.90;68.00;;;;;;349603;28;1070;-57
2023/10/16 00:11:23;;;;;;;15.15;13.60;;;20.90;67.90;;;;;;349495;28;1198;-58
2023/10/16 00:11:37;;;;;;;15.68;13.73;;;20.90;67.90;;;;;;349595;28;1118;-57
2023/10/16 00:11:48;;;;;;;17.30;14.40;;;20.90;68.10;;;;;;349608;28;841;-57
2023/10/16 00:11:59;;;;;;;17.63;15.25;;;20.90;68.40;;;;;;349625;28;1130;-57
2023/10/16 00:12:09;;;;;;;17.20;15.35;;;20.90;68.60;;;;;;349536;28;1066;-56
2023/10/16 00:12:20;;;;;;;15.90;14.30;;;20.90;68.50;;;;;;349635;28;919;-56
2023/10/16 00:12:31;;;;;;;15.40;13.85;;;20.90;68.40;;;;;;349631;28;1785;-57
2023/10/16 00:12:42;;;;;;;15.80;14.15;;;21.00;68.40;;;;;;349627;28;849;-57
2023/10/16 00:12:52;;;;;;;18.85;14.43;;;20.90;68.40;;;;;;349577;28;1428;-58
2023/10/16 00:13:11;;;;;;;18.30;14.23;;;20.90;68.40;;;;;;349442;28;1015;-57
2023/10/16 00:13:26;;;;;;;15.65;13.93;;;20.90;68.30;;;;;;349515;28;923;-57
2023/10/16 00:13:39;;;;;;;15.90;14.20;;;20.90;68.40;;;;;;349508;28;1015;-56
2023/10/16 00:13:51;;;;;;;15.95;14.25;;;20.90;68.60;;;;;;349461;28;1032;-57
2023/10/16 00:14:11;;;;;;;16.00;14.25;;;20.90;68.70;;;;;;349498;28;955;-57
2023/10/16 00:14:23;;;;;;;16.20;14.52;;;20.90;68.70;;;;;;349427;28;1194;-57
2023/10/16 00:14:35;;;;;;;16.08;14.38;;;20.90;68.50;;;;;;349522;28;1046;-57
2023/10/16 00:14:46;;;;;;;17.13;14.50;;;20.90;68.40;;;;;;349461;28;988;-58
2023/10/16 00:14:59;;;;;;;16.70;14.45;;;20.90;68.30;;;;;;349571;28;1078;-57
2023/10/16 00:15:10;;;;;;;15.90;14.15;;;20.90;68.20;;;;;;349569;28;1484;-58
2023/10/16 00:15:21;;;;;;;15.50;14.00;;;20.90;68.10;;;;;;349537;28;1070;-57
2023/10/16 00:15:40;;;;;;;15.27;13.77;;;20.90;68.00;;;;;;349636;28;984;-57
2023/10/16 00:15:51;;;;;;;15.20;13.60;;;20.90;67.90;;;;;;349469;28;2622;-56
2023/10/16 00:16:02;;;;;;;15.05;13.30;;;20.90;67.90;;;;;;349618;28;1071;-56
2023/10/16 00:16:21;;;;;;;15.90;13.65;;;20.90;67.80;;;;;;349568;28;1123;-56
2023/10/16 00:16:33;;;;;;;16.45;14.40;;;20.90;67.90;;;;;;349594;28;857;-56
2023/10/16 00:16:44;;;;;;;15.55;13.93;;;20.90;67.90;;;;;;349641;28;2054;-56
2023/10/16 00:16:56;;;;;;;16.05;13.98;;;20.90;67.90;;;;;;349603;28;990;-57
2023/10/16 00:17:09;;;;;;;15.77;14.07;;;20.90;67.80;;;;;;349580;28;1186;-57
2023/10/16 00:17:21;;;;;;;15.45;13.82;;;20.90;67.80;;;;;;349547;28;1513;-56
2023/10/16 00:17:32;;;;;;;15.00;13.45;;;20.90;67.80;;;;;;349488;28;1134;-56
2023/10/16 00:17:43;;;;;;;15.10;13.20;;;21.00;67.70;;;;;;349589;28;1165;-56
2023/10/16 00:17:56;;;;;;;15.98;13.63;;;20.90;67.70;;;;;;349487;28;1544;-57
2023/10/16 00:18:16;;;;;;;16.45;14.23;;;21.00;67.70;;;;;;349476;28;988;-56
2023/10/16 00:18:33;;;;;;;16.52;14.25;;;21.00;67.80;;;;;;349625;28;1033;-57
2023/10/16 00:18:50;;;;;;;16.02;14.32;;;20.90;67.90;;;;;;349641;28;992;-57
2023/10/16 00:19:09;;;;;;;16.77;14.70;;;21.00;67.90;;;;;;349561;28;1119;-57
2023/10/16 00:19:19;;;;;;;16.48;14.45;;;20.90;67.90;;;;;;349639;28;1135;-56
2023/10/16 00:19:33;;;;;;;15.15;13.52;;;20.90;67.90;;;;;;349629;28;1015;-56
2023/10/16 00:19:44;;;;;;;15.32;13.65;;;21.00;67.90;;;;;;349529;28;1031;-56
2023/10/16 00:19:55;;;;;;;15.63;13.93;;;20.90;68.00;;;;;;349599;28;1752;-55
2023/10/16 00:20:16;;;;;;;16.17;14.18;;;21.00;68.00;;;;;;349566;28;1939;-57
2023/10/16 00:20:27;;;;;;;15.45;13.85;;;20.90;68.10;;;;;;349515;28;980;-56
2023/10/16 00:20:37;;;;;;;15.90;14.23;;;21.00;68.20;;;;;;349593;28;850;-57
2023/10/16 00:20:49;;;;;;;16.70;14.43;;;21.00;68.10;;;;;;349495;28;1019;-56
2023/10/16 00:21:05;;;;;;;16.42;14.38;;;21.00;68.00;;;;;;349625;28;841;-56
2023/10/16 00:21:17;;;;;;;15.98;14.27;;;21.00;67.80;;;;;;349559;28;1216;-57
2023/10/16 00:21:30;;;;;;;16.08;14.38;;;21.00;67.60;;;;;;349632;28;853;-57
2023/10/16 00:21:44;;;;;;;15.85;14.25;;;21.00;67.50;;;;;;349514;28;1178;-56
2023/10/16 00:21:57;;;;;;;15.74;14.16;;;20.90;67.50;;;;;;349552;28;1341;-57
2023/10/16 00:22:15;;;;;;;15.75;14.05;;;21.00;67.50;;;;;;349544;28;987;-57
2023/10/16 00:22:26;;;;;;;16.92;13.73;;;21.00;67.60;;;;;;349568;28;1285;-57
2023/10/16 00:22:37;;;;;;;16.33;13.68;;;21.00;67.60;;;;;;349575;28;940;-56
2023/10/16 00:22:47;;;;;;;15.40;13.80;;;21.00;67.60;;;;;;349644;28;822;-57
2023/10/16 00:22:58;;;;;;;15.70;14.05;;;21.00;67.70;;;;;;349517;28;1028;-56
2023/10/16 00:23:12;;;;;;;15.80;14.20;;;21.00;67.60;;;;;;349581;28;1541;-56
2023/10/16 00:23:30;;;;;;;15.77;14.15;;;21.00;67.40;;;;;;349519;28;1086;-56
2023/10/16 00:23:41;;;;;;;15.90;14.20;;;21.00;67.10;;;;;;349479;28;1214;-56
2023/10/16 00:23:54;;;;;;;15.70;14.07;;;21.00;67.10;;;;;;349581;28;1118;-57
2023/10/16 00:24:07;;;;;;;15.73;14.13;;;21.00;67.00;;;;;;349492;28;2437;-56
2023/10/16 00:24:18;;;;;;;16.58;14.60;;;21.00;67.10;;;;;;349599;28;1796;-57
2023/10/16 00:24:29;;;;;;;16.55;14.75;;;21.00;67.00;;;;;;349491;28;1127;-57
2023/10/16 00:24:45;;;;;;;15.80;14.05;;;21.00;67.00;;;;;;349605;28;995;-57
2023/10/16 00:24:58;;;;;;;17.30;13.93;;;21.00;67.00;;;;;;349608;28;888;-57
2023/10/16 00:25:09;;;;;;;26.52;15.13;;;21.00;67.00;;;;;;349560;28;1027;-56
2023/10/16 00:25:24;;;;;;;26.48;15.13;;;20.90;67.20;;;;;;349610;28;1027;-56
2023/10/16 00:25:38;;;;;;;15.75;14.15;;;21.00;67.20;;;;;;349648;28;835;-57
2023/10/16 00:25:50;;;;;;;15.82;14.32;;;20.90;67.40;;;;;;349514;28;1102;-57
2023/10/16 00:26:01;;;;;;;15.70;14.20;;;20.90;67.60;;;;;;349635;28;1039;-56
2023/10/16 00:26:15;;;;;;;15.50;13.95;;;21.00;67.80;;;;;;349631;28;849;-56
2023/10/16 00:26:26;;;;;;;15.38;13.77;;;21.00;67.80;;;;;;349495;28;883;-57
2023/10/16 00:26:42;;;;;;;16.17;14.48;;;21.00;67.80;;;;;;349596;28;1093;-57
2023/10/16 00:26:53;;;;;;;16.45;14.73;;;21.00;67.80;;;;;;349660;28;1000;-56
2023/10/16 00:27:04;;;;;;;16.55;14.77;;;21.00;67.90;;;;;;349595;28;1262;-57
2023/10/16 00:27:16;;;;;;;16.02;14.32;;;21.00;68.00;;;;;;349452;28;1067;-57
2023/10/16 00:27:27;;;;;;;16.15;14.45;;;20.90;68.00;;;;;;349565;28;1015;-57
2023/10/16 00:27:38;;;;;;;16.45;14.75;;;20.90;68.00;;;;;;349683;28;829;-56
2023/10/16 00:27:49;;;;;;;17.05;14.65;;;21.00;68.00;;;;;;349663;28;915;-55
2023/10/16 00:28:01;;;;;;;17.43;14.73;;;21.00;68.00;;;;;;349584;28;898;-58
2023/10/16 00:28:15;;;;;;;17.63;14.88;;;21.00;68.00;;;;;;349567;28;1078;-57
2023/10/16 00:28:26;;;;;;;16.50;14.68;;;21.00;68.00;;;;;;349599;28;999;-56
2023/10/16 00:28:43;;;;;;;16.65;14.68;;;21.00;68.00;;;;;;349562;28;1082;-56
2023/10/16 00:29:17;;;;;;;17.10;14.65;;;21.00;68.10;;;;;;349517;28;1206;-56
2023/10/16 00:29:35;;;;;;;17.48;15.00;;;21.00;68.10;;;;;;349522;28;1009;-57
2023/10/16 00:29:46;;;;;;;16.35;14.75;;;21.00;68.40;;;;;;349650;28;918;-55
2023/10/16 00:29:57;;;;;;;16.00;14.35;;;21.00;68.40;;;;;;349640;28;832;-56
2023/10/16 00:30:08;;;;;;;15.57;13.87;;;21.00;68.20;;;;;;349501;28;1473;-58
2023/10/16 00:30:18;;;;;;;15.55;13.80;;;21.00;68.10;;;;;;349604;28;1073;-56
2023/10/16 00:30:31;;;;;;;15.17;13.57;;;21.00;68.00;;;;;;349651;28;1042;-57
2023/10/16 00:30:41;;;;;;;15.05;13.45;;;21.00;67.90;;;;;;349514;28;1240;-57
2023/10/16 00:30:52;;;;;;;14.77;13.17;;;21.00;67.80;;;;;;349565;28;955;-57
2023/10/16 00:31:03;;;;;;;15.70;13.35;;;21.00;67.80;;;;;;349611;28;1046;-57
2023/10/16 00:31:23;;;;;;;16.73;13.60;;;21.00;67.80;;;;;;349622;28;1102;-57
2023/10/16 00:31:35;;;;;;;16.13;14.43;;;21.00;67.80;;;;;;349483;28;1023;-57
2023/10/16 00:31:52;;;;;;;15.95;14.32;;;21.00;67.50;;;;;;349624;28;1027;-57
2023/10/16 00:32:07;;;;;;;15.60;14.00;;;21.00;67.60;;;;;;349610;28;951;-58
2023/10/16 00:32:17;;;;;;;15.48;13.85;;;20.90;67.60;;;;;;349537;28;1015;-57
2023/10/16 00:32:30;;;;;;;15.40;13.80;;;21.00;67.70;;;;;;349664;28;1074;-57
2023/10/16 00:32:41;;;;;;;15.57;13.98;;;20.90;67.80;;;;;;349640;28;1019;-57
2023/10/16 00:32:52;;;;;;;15.77;14.07;;;20.90;67.70;;;;;;349533;28;1853;-56
2023/10/16 00:33:04;;;;;;;16.00;13.90;;;21.00;67.70;;;;;;349593;28;1082;-56
2023/10/16 00:33:16;;;;;;;15.80;13.57;;;21.00;67.70;;;;;;349527;28;1107;-56
2023/10/16 00:33:27;;;;;;;14.60;13.07;;;20.90;67.60;;;;;;349597;28;1107;-56
2023/10/16 00:33:40;;;;;;;14.82;12.80;;;21.00;67.50;;;;;;349510;28;1428;-56
2023/10/16 00:33:53;;;;;;;15.27;13.27;;;21.00;67.50;;;;;;349624;28;939;-55
2023/10/16 00:34:04;;;;;;;15.23;13.27;;;20.90;67.70;;;;;;349414;28;2078;-57
2023/10/16 00:34:19;;;;;;;16.73;13.38;;;21.00;67.70;;;;;;349667;28;864;-57
2023/10/16 00:34:30;;;;;;;17.35;14.10;;;21.00;67.80;;;;;;349634;28;833;-57
2023/10/16 00:34:41;;;;;;;17.25;14.50;;;21.00;68.00;;;;;;349534;28;1407;-58
2023/10/16 00:34:52;;;;;;;16.30;14.33;;;20.90;68.00;;;;;;349564;28;1636;-56
2023/10/16 00:35:08;;;;;;;15.73;14.05;;;20.90;68.10;;;;;;349663;28;1098;-56
2023/10/16 00:35:19;;;;;;;15.45;13.88;;;21.00;68.20;;;;;;349425;28;2597;-57
2023/10/16 00:35:30;;;;;;;15.07;13.48;;;21.00;68.20;;;;;;349627;28;1007;-57
2023/10/16 00:35:41;;;;;;;15.13;13.53;;;21.00;68.10;;;;;;349662;28;1042;-56
2023/10/16 00:35:52;;;;;;;15.43;13.77;;;20.90;68.20;;;;;;349456;28;1898;-56
2023/10/16 00:36:03;;;;;;;16.00;14.30;;;20.90;68.20;;;;;;349622;28;1312;-56
2023/10/16 00:36:14;;;;;;;15.68;13.93;;;21.00;68.10;;;;;;349577;28;2072;-57
2023/10/16 00:36:25;;;;;;;14.65;13.18;;;21.00;67.90;;;;;;349581;28;1013;-56
2023/10/16 00:36:36;;;;;;;14.80;13.30;;;21.00;67.70;;;;;;349640;28;868;-57
2023/10/16 00:36:47;;;;;;;15.60;14.02;;;21.00;67.60;;;;;;349555;28;1328;-57
2023/10/16 00:37:01;;;;;;;15.88;14.27;;;21.00;67.40;;;;;;349475;28;1516;-56
2023/10/16 00:37:12;;;;;;;15.82;14.15;;;21.00;67.60;;;;;;349557;28;1856;-56
2023/10/16 00:37:25;;;;;;;15.77;14.10;;;21.00;67.70;;;;;;349552;28;1025;-57
2023/10/16 00:37:36;;;;;;;16.52;14.50;;;21.00;67.70;;;;;;349599;28;1054;-57
2023/10/16 00:37:49;;;;;;;16.70;14.67;;;21.00;67.70;;;;;;349600;28;971;-56
2023/10/16 00:38:03;;;;;;;17.00;14.05;;;21.00;67.70;;;;;;349528;28;1117;-57
2023/10/16 00:38:14;;;;;;;15.55;12.98;;;21.00;67.20;;;;;;349619;28;1039;-57
2023/10/16 00:38:25;;;;;;;14.20;12.68;;;20.90;67.00;;;;;;349511;28;1027;-57
2023/10/16 00:38:37;;;;;;;14.43;12.82;;;20.90;67.00;;;;;;349654;28;1074;-56
2023/10/16 00:38:51;;;;;;;14.75;13.23;;;21.00;67.10;;;;;;349562;28;1209;-56
2023/10/16 00:39:14;;;;;;;14.82;13.32;;;20.90;67.20;;;;;;349570;28;1134;-57
2023/10/16 00:39:31;;;;;;;14.65;13.05;;;20.90;67.10;;;;;;349480;28;999;-56
2023/10/16 00:39:42;;;;;;;15.63;13.35;;;20.90;67.10;;;;;;349576;28;960;-56
2023/10/16 00:39:53;;;;;;;15.48;13.27;;;20.90;67.10;;;;;;349612;28;1201;-56
2023/10/16 00:40:10;;;;;;;15.37;13.20;;;20.90;67.10;;;;;;349704;28;844;-57
2023/10/16 00:40:33;;;;;;;15.85;13.65;;;20.90;67.10;;;;;;349551;28;1074;-56
2023/10/16 00:41:28;;;;;;;16.13;13.60;;;20.90;67.20;;;;;;349594;28;1038;-56
2023/10/16 00:41:43;;;;;;;16.95;13.02;;;20.90;67.30;;;;;;349500;28;1201;-57
2023/10/16 00:41:57;;;;;;;14.68;12.82;;;20.90;67.30;;;;;;349609;28;1861;-56
2023/10/16 00:42:08;;;;;;;15.18;13.65;;;20.80;67.40;;;;;;349632;28;1066;-56
2023/10/16 00:42:19;;;;;;;15.20;13.63;;;20.90;67.50;;;;;;349601;28;876;-56
2023/10/16 00:42:32;;;;;;;15.00;13.55;;;20.90;67.40;;;;;;349473;28;1153;-56
2023/10/16 00:42:43;;;;;;;14.77;13.38;;;20.90;67.40;;;;;;349633;28;939;-57
2023/10/16 00:42:54;;;;;;;15.32;13.80;;;20.90;67.50;;;;;;349586;28;844;-57
2023/10/16 00:43:12;;;;;;;16.70;14.65;;;20.90;67.60;;;;;;349656;28;920;-57
2023/10/16 00:43:23;;;;;;;16.10;13.63;;;20.90;67.60;;;;;;349523;28;1078;-57
2023/10/16 00:43:34;;;;;;;14.43;12.82;;;20.80;67.30;;;;;;349585;28;1671;-56
2023/10/16 00:43:45;;;;;;;14.57;12.35;;;20.90;67.40;;;;;;349643;28;1011;-56
2023/10/16 00:43:57;;;;;;;15.35;12.90;;;20.90;67.40;;;;;;349596;28;1813;-55
2023/10/16 00:44:07;;;;;;;16.55;12.98;;;20.90;67.40;;;;;;349501;28;1473;-57
2023/10/16 00:44:18;;;;;;;15.63;13.20;;;20.90;67.50;;;;;;349644;28;793;-56
2023/10/16 00:44:35;;;;;;;16.35;13.63;;;20.90;67.60;;;;;;349612;28;849;-56
2023/10/16 00:44:47;;;;;;;18.00;14.43;;;20.90;67.80;;;;;;349552;28;1262;-57
2023/10/16 00:44:59;;;;;;;17.50;14.25;;;20.90;67.90;;;;;;349516;28;1029;-57
2023/10/16 00:45:10;;;;;;;17.10;14.00;;;20.90;67.90;;;;;;349570;28;1274;-56
2023/10/16 00:45:21;;;;;;;16.15;13.68;;;20.90;67.80;;;;;;349615;28;1079;-55
2023/10/16 00:46:20;;;;;;;15.80;13.27;;;20.90;67.80;;;;;;349466;28;1337;-57
2023/10/16 00:46:38;;;;;;;15.13;13.52;;;20.90;67.80;;;;;;349590;28;1062;-56
2023/10/16 00:46:48;;;;;;;15.18;13.57;;;20.90;68.10;;;;;;349542;28;1229;-57
2023/10/16 00:47:01;;;;;;;15.73;13.50;;;20.90;68.10;;;;;;349563;28;1039;-57
2023/10/16 00:47:12;;;;;;;15.75;13.57;;;20.90;68.10;;;;;;349563;28;1119;-57
2023/10/16 00:47:24;;;;;;;14.88;13.27;;;20.90;68.00;;;;;;349497;28;1283;-56
2023/10/16 00:47:36;;;;;;;14.63;12.95;;;20.90;67.80;;;;;;349645;28;1068;-55
2023/10/16 00:47:47;;;;;;;14.80;12.60;;;20.90;67.70;;;;;;349566;28;1024;-56
2023/10/16 00:47:58;;;;;;;14.70;12.35;;;20.90;67.70;;;;;;349486;28;1320;-56
2023/10/16 00:48:09;;;;;;;14.95;12.00;;;20.90;67.60;;;;;;349630;28;984;-57
2023/10/16 00:48:21;;;;;;;15.50;12.15;;;20.90;67.70;;;;;;349645;28;919;-56
2023/10/16 00:48:34;;;;;;;16.13;12.82;;;20.90;67.80;;;;;;349478;28;1025;-55
2023/10/16 00:48:46;;;;;;;16.80;12.60;;;20.90;67.70;;;;;;349553;28;1094;-56
2023/10/16 00:48:58;;;;;;;16.85;11.80;;;20.90;67.60;;;;;;349533;28;1952;-56
2023/10/16 00:49:12;;;;;;;14.38;11.30;;;20.90;67.10;;;;;;349527;28;1033;-57
2023/10/16 00:49:23;;;;;;;13.93;11.07;;;20.90;67.10;;;;;;349538;28;1604;-56
2023/10/16 00:49:35;;;;;;;13.80;11.13;;;20.90;67.10;;;;;;349584;28;865;-57
2023/10/16 00:49:49;;;;;;;12.30;10.95;;;20.90;67.10;;;;;;349494;28;1110;-57
2023/10/16 00:50:02;;;;;;;12.88;11.35;;;20.90;67.10;;;;;;349535;28;1468;-56
2023/10/16 00:50:14;;;;;;;13.32;11.57;;;20.90;67.20;;;;;;349600;28;1997;-56
2023/10/16 00:50:25;;;;;;;12.82;11.40;;;20.90;67.10;;;;;;349645;28;923;-56
2023/10/16 00:50:36;;;;;;;12.73;11.40;;;20.90;67.10;;;;;;349521;28;1094;-56
2023/10/16 00:50:48;;;;;;;13.18;11.77;;;20.90;67.30;;;;;;349587;28;1023;-56
2023/10/16 00:51:06;;;;;;;13.88;11.50;;;20.90;67.40;;;;;;349581;28;1035;-56
2023/10/16 00:51:16;;;;;;;14.00;11.20;;;20.90;67.40;;;;;;349535;28;1690;-57
2023/10/16 00:51:28;;;;;;;13.38;11.07;;;20.90;67.30;;;;;;349535;28;1042;-56
2023/10/16 00:51:40;;;;;;;12.27;10.95;;;20.90;67.00;;;;;;349509;28;1004;-56
2023/10/16 00:51:52;;;;;;;12.57;11.27;;;20.90;66.90;;;;;;349614;28;864;-57
2023/10/16 00:52:04;;;;;;;13.38;11.95;;;20.90;67.00;;;;;;349623;28;1090;-56
2023/10/16 00:52:16;;;;;;;13.60;11.77;;;20.90;67.10;;;;;;349532;28;1000;-56
2023/10/16 00:52:27;;;;;;;14.25;11.90;;;20.90;66.90;;;;;;349616;28;966;-56
2023/10/16 00:52:41;;;;;;;16.07;13.57;;;20.90;67.00;;;;;;349632;28;991;-56
2023/10/16 00:52:53;;;;;;;24.52;20.45;;;20.90;67.10;;;;;;349579;28;1370;-56
2023/10/16 00:53:07;;;;;;;26.37;22.50;;;20.90;67.30;;;;;;349554;28;1082;-57
2023/10/16 00:53:23;;;;;;;25.20;21.10;;;21.00;67.30;;;;;;349536;28;1016;-56
2023/10/16 00:53:38;;;;;;;23.27;18.50;;;20.90;67.20;;;;;;349587;28;948;-57
2023/10/16 00:53:49;;;;;;;20.50;16.52;;;20.90;67.10;;;;;;349607;28;943;-56
2023/10/16 00:54:02;;;;;;;16.45;14.20;;;20.90;67.10;;;;;;349507;28;1081;-56
2023/10/16 00:54:27;;;;;;;14.30;12.68;;;20.90;67.10;;;;;;349551;28;1268;-56
2023/10/16 00:54:39;;;;;;;14.68;11.30;;;20.90;67.30;;;;;;349577;28;1047;-56
2023/10/16 00:54:53;;;;;;;13.55;11.43;;;20.90;67.50;;;;;;349525;28;1017;-56
2023/10/16 00:55:10;;;;;;;12.95;11.65;;;20.90;67.40;;;;;;349799;28;1043;-57
2023/10/16 00:55:21;;;;;;;13.27;11.27;;;20.90;67.10;;;;;;349781;28;1135;-57
2023/10/16 00:55:32;;;;;;;14.30;11.30;;;20.90;67.00;;;;;;349765;28;1769;-56
2023/10/16 00:55:43;;;;;;;14.88;11.50;;;20.90;67.00;;;;;;349867;28;995;-57
2023/10/16 00:55:58;;;;;;;13.98;11.55;;;20.90;67.00;;;;;;349734;28;1988;-56
2023/10/16 00:56:12;;;;;;;14.23;12.07;;;20.90;66.90;;;;;;349830;28;1004;-56
2023/10/16 00:56:27;;;;;;;15.18;12.60;;;20.90;67.20;;;;;;349802;28;999;-56
2023/10/16 00:56:38;;;;;;;16.25;12.52;;;20.90;67.30;;;;;;349794;28;1154;-57
2023/10/16 00:56:50;;;;;;;15.88;12.57;;;21.00;67.50;;;;;;349831;28;1066;-58
2023/10/16 00:57:04;;;;;;;13.43;12.05;;;21.00;67.60;;;;;;349747;28;1122;-58
2023/10/16 00:57:15;;;;;;;13.70;12.30;;;21.00;67.60;;;;;;349840;28;988;-57
2023/10/16 00:57:27;;;;;;;13.48;12.07;;;20.90;67.50;;;;;;349872;28;1007;-57
2023/10/16 00:57:42;;;;;;;13.90;11.98;;;20.90;67.40;;;;;;349811;28;1035;-57
2023/10/16 00:57:55;;;;;;;14.23;11.55;;;21.00;67.40;;;;;;349818;28;1027;-56
2023/10/16 00:58:08;;;;;;;14.82;11.25;;;20.90;67.10;;;;;;349869;28;1094;-56
2023/10/16 00:58:20;;;;;;;15.35;11.60;;;21.00;67.00;;;;;;349786;28;1118;-55
2023/10/16 00:58:31;;;;;;;13.85;11.98;;;20.90;66.90;;;;;;349783;28;1039;-56
2023/10/16 00:58:42;;;;;;;13.55;12.15;;;20.90;67.00;;;;;;349822;28;1011;-57
2023/10/16 00:58:56;;;;;;;13.23;11.93;;;20.90;67.00;;;;;;349727;28;1074;-55
2023/10/16 00:59:06;;;;;;;13.30;11.65;;;20.90;67.10;;;;;;349780;28;1912;-57
2023/10/16 00:59:17;;;;;;;13.35;11.55;;;21.00;67.20;;;;;;349786;28;946;-55
2023/10/16 00:59:28;;;;;;;13.45;11.70;;;20.90;67.20;;;;;;349864;28;915;-56
2023/10/16 00:59:40;;;;;;;14.23;12.00;;;21.00;67.30;;;;;;349869;28;929;-56
2023/10/16 00:59:53;;;;;;;13.73;11.95;;;21.00;67.30;;;;;;349841;28;1162;-56
2023/10/16 01:00:12;;;;;;;14.32;11.85;;;20.90;67.50;;;;;;349772;28;997;-57
2023/10/16 01:00:23;;;;;;;14.68;11.77;;;20.90;67.50;;;;;;349751;28;1139;-57
2023/10/16 01:00:38;;;;;;;13.57;11.90;;;20.90;67.50;;;;;;349874;28;1128;-57
2023/10/16 01:00:48;;;;;;;13.90;12.10;;;21.00;67.50;;;;;;349732;28;1062;-56
2023/10/16 01:01:02;;;;;;;13.88;11.68;;;21.00;67.40;;;;;;349851;28;845;-56
2023/10/16 01:01:14;;;;;;;14.07;11.48;;;20.90;67.20;;;;;;349794;28;865;-56
2023/10/16 01:01:25;;;;;;;14.25;11.52;;;20.90;67.40;;;;;;349798;28;1526;-56
2023/10/16 01:01:43;;;;;;;15.38;11.90;;;20.90;67.50;;;;;;349798;28;1050;-56
2023/10/16 01:02:30;;;;;;;13.90;11.43;;;20.90;67.50;;;;;;349663;28;1080;-56
2023/10/16 01:02:41;;;;;;;14.68;12.23;;;20.90;67.40;;;;;;349814;28;1098;-56
2023/10/16 01:02:52;;;;;;;15.32;12.40;;;20.90;67.70;;;;;;349806;28;1098;-55
2023/10/16 01:03:04;;;;;;;17.65;12.57;;;20.90;67.70;;;;;;349798;28;1035;-57
2023/10/16 01:03:20;;;;;;;15.52;12.02;;;20.90;67.40;;;;;;349762;28;1620;-56
2023/10/16 01:03:34;;;;;;;14.35;11.65;;;20.90;67.30;;;;;;349718;28;1568;-56
2023/10/16 01:03:48;;;;;;;15.75;11.20;;;20.90;67.10;;;;;;349730;28;1054;-56
2023/10/16 01:03:59;;;;;;;15.35;11.15;;;20.90;67.00;;;;;;349762;28;1966;-57
2023/10/16 01:04:11;;;;;;;13.48;11.32;;;20.90;67.10;;;;;;349818;28;1349;-55
2023/10/16 01:04:21;;;;;;;13.32;11.13;;;20.90;67.10;;;;;;349774;28;1345;-56
2023/10/16 01:04:33;;;;;;;13.48;11.18;;;20.90;66.80;;;;;;349744;28;1106;-56
2023/10/16 01:04:47;;;;;;;13.63;11.18;;;20.90;66.80;;;;;;349869;28;979;-57
2023/10/16 01:04:58;;;;;;;15.25;11.38;;;20.90;66.70;;;;;;349803;28;1284;-57
2023/10/16 01:05:08;;;;;;;16.52;11.90;;;20.90;66.80;;;;;;349838;28;1035;-57
2023/10/16 01:05:23;;;;;;;15.25;11.85;;;20.90;67.10;;;;;;349657;28;1258;-57
2023/10/16 01:05:39;;;;;;;12.88;11.15;;;20.90;67.10;;;;;;349790;28;1126;-57
2023/10/16 01:05:50;;;;;;;12.85;11.18;;;20.90;67.10;;;;;;349767;28;1876;-57
2023/10/16 01:06:01;;;;;;;13.02;11.23;;;20.90;67.20;;;;;;349745;28;1296;-56
2023/10/16 01:06:36;;;;;;;13.93;11.52;;;20.90;67.20;;;;;;349763;28;1489;-56
2023/10/16 01:06:47;;;;;;;13.25;11.35;;;20.90;67.20;;;;;;349682;28;1228;-56
2023/10/16 01:06:57;;;;;;;13.43;11.13;;;20.90;67.20;;;;;;349819;28;996;-57
2023/10/16 01:07:09;;;;;;;13.97;11.00;;;20.90;67.20;;;;;;349852;28;1210;-57
2023/10/16 01:07:21;;;;;;;13.65;11.00;;;20.90;67.20;;;;;;349769;28;1201;-56
2023/10/16 01:07:32;;;;;;;13.10;11.20;;;20.90;67.10;;;;;;349737;28;1137;-56
2023/10/16 01:07:43;;;;;;;11.65;10.43;;;20.90;67.10;;;;;;349770;28;1418;-57
2023/10/16 01:07:54;;;;;;;11.80;10.60;;;20.90;66.80;;;;;;349854;28;959;-56
2023/10/16 01:08:07;;;;;;;12.20;10.63;;;20.90;66.90;;;;;;349849;28;1493;-56
2023/10/16 01:08:18;;;;;;;13.32;11.05;;;20.90;67.00;;;;;;349715;28;1028;-57
2023/10/16 01:08:29;;;;;;;13.38;11.00;;;20.90;67.00;;;;;;349815;28;1014;-57
2023/10/16 01:08:49;;;;;;;13.52;11.57;;;20.90;67.10;;;;;;349809;28;1090;-56
2023/10/16 01:09:00;;;;;;;15.82;12.40;;;20.90;67.30;;;;;;349797;28;893;-56
2023/10/16 01:09:22;;;;;;;15.77;12.73;;;20.90;67.30;;;;;;349861;28;1067;-56
2023/10/16 01:09:35;;;;;;;14.48;11.82;;;20.90;67.40;;;;;;349825;28;877;-56
2023/10/16 01:09:46;;;;;;;13.98;11.40;;;20.90;67.50;;;;;;349832;28;886;-56
2023/10/16 01:09:59;;;;;;;12.77;11.30;;;20.90;67.40;;;;;;349843;28;1033;-57
2023/10/16 01:10:10;;;;;;;12.90;11.20;;;20.90;67.20;;;;;;349775;28;1102;-57
2023/10/16 01:10:22;;;;;;;12.30;11.00;;;20.90;67.10;;;;;;349749;28;1227;-57